createdAt,value
2019-06-26T00:00:56.683Z,51.57
2019-06-26T00:03:46.513Z,51.57
2019-06-26T00:06:36.143Z,51.62
2019-06-26T00:09:25.515Z,51.50
2019-06-26T00:12:14.830Z,51.37
2019-06-26T00:15:04.077Z,51.38
2019-06-26T00:17:52.875Z,51.48
2019-06-26T00:20:42.018Z,51.83
2019-06-26T00:23:31.354Z,51.91
2019-06-26T00:26:21.163Z,51.82
2019-06-26T00:29:10.833Z,51.96
2019-06-26T00:31:59.815Z,51.82
2019-06-26T00:34:48.785Z,51.92
2019-06-26T00:37:37.648Z,52.10
2019-06-26T00:40:27.497Z,52.52
2019-06-26T00:43:16.585Z,52.50
2019-06-26T00:46:05.717Z,52.42
2019-06-26T00:48:55.347Z,52.58
2019-06-26T00:51:44.901Z,52.91
2019-06-26T00:54:34.770Z,52.98
2019-06-26T00:57:24.713Z,52.71
2019-06-26T01:00:26.652Z,52.75
2019-06-26T01:03:06.706Z,53.31
2019-06-26T01:05:56.373Z,53.40
2019-06-26T01:08:45.652Z,53.68
2019-06-26T01:11:35.239Z,53.86
2019-06-26T01:14:24.326Z,53.59
2019-06-26T01:17:13.749Z,53.91
2019-06-26T01:20:03.239Z,53.67
2019-06-26T01:22:52.482Z,53.66
2019-06-26T01:25:41.968Z,53.92
2019-06-26T01:28:30.769Z,53.65
2019-06-26T01:31:19.531Z,53.66
2019-06-26T01:34:08.416Z,53.56
2019-06-26T01:36:57.144Z,53.63
2019-06-26T01:39:46.962Z,53.51
2019-06-26T01:42:36.104Z,53.52
2019-06-26T01:45:25.911Z,54.15
2019-06-26T01:48:15.106Z,54.17
2019-06-26T01:51:04.674Z,53.90
2019-06-26T01:53:53.781Z,54.25
2019-06-26T01:56:43.093Z,54.33
2019-06-26T01:59:32.740Z,54.24
2019-06-26T02:02:21.517Z,54.67
2019-06-26T02:05:11.169Z,55.03
2019-06-26T02:08:00.175Z,54.97
2019-06-26T02:10:49.327Z,54.89
2019-06-26T02:13:38.947Z,54.90
2019-06-26T02:16:28.430Z,55.15
2019-06-26T02:19:19.586Z,55.08
2019-06-26T02:22:08.885Z,55.08
2019-06-26T02:24:58.452Z,55.23
2019-06-26T02:27:48.228Z,55.48
2019-06-26T02:30:37.798Z,55.47
2019-06-26T02:33:27.330Z,55.66
2019-06-26T02:36:16.883Z,55.87
2019-06-26T02:39:07.562Z,56.08
2019-06-26T02:41:56.262Z,56.63
2019-06-26T02:44:53.434Z,56.45
2019-06-26T02:47:36.339Z,56.26
2019-06-26T02:50:25.142Z,56.31
2019-06-26T02:53:14.348Z,56.80
2019-06-26T02:56:03.383Z,57.23
2019-06-26T02:58:52.130Z,57.07
2019-06-26T03:01:41.195Z,57.12
2019-06-26T03:04:30.427Z,57.24
2019-06-26T03:07:19.740Z,57.36
2019-06-26T03:10:09.032Z,57.09
2019-06-26T03:12:58.427Z,57.51
2019-06-26T03:15:50.463Z,57.54
2019-06-26T03:18:39.116Z,57.47
2019-06-26T03:21:28.236Z,58.36
2019-06-26T03:24:18.226Z,58.24
2019-06-26T03:27:09.096Z,58.28
2019-06-26T03:29:59.009Z,58.37
2019-06-26T03:32:48.297Z,60.83
2019-06-26T03:35:40.642Z,62.11
2019-06-26T03:38:29.146Z,61.88
2019-06-26T03:41:18.692Z,62.18
2019-06-26T03:44:07.926Z,62.12
2019-06-26T03:46:57.544Z,60.98
2019-06-26T03:49:47.457Z,59.60
2019-06-26T03:52:37.401Z,59.56
2019-06-26T03:55:27.050Z,58.88
2019-06-26T03:58:16.707Z,59.46
2019-06-26T04:01:06.416Z,59.24
2019-06-26T04:03:57.491Z,59.95
2019-06-26T04:06:47.236Z,59.24
2019-06-26T04:09:36.218Z,58.85
2019-06-26T04:12:25.225Z,58.51
2019-06-26T04:15:14.964Z,58.43
2019-06-26T04:18:04.242Z,57.86
2019-06-26T04:20:53.878Z,57.43
2019-06-26T04:23:43.157Z,57.43
2019-06-26T04:26:32.715Z,57.68
2019-06-26T04:29:22.427Z,57.75
2019-06-26T04:32:11.578Z,58.20
2019-06-26T04:35:00.961Z,57.79
2019-06-26T04:37:49.954Z,57.79
2019-06-26T04:40:38.968Z,58.29
2019-06-26T04:43:27.977Z,58.35
2019-06-26T04:46:17.555Z,58.12
2019-06-26T04:49:06.687Z,58.00
2019-06-26T04:51:56.244Z,58.40
2019-06-26T04:54:45.859Z,58.57
2019-06-26T04:57:35.736Z,58.01
2019-06-26T05:00:25.091Z,58.12
2019-06-26T05:03:14.399Z,58.25
2019-06-26T05:06:03.836Z,58.74
2019-06-26T05:08:52.866Z,58.33
2019-06-26T05:11:42.184Z,58.67
2019-06-26T05:14:30.922Z,58.06
2019-06-26T05:17:20.159Z,58.09
2019-06-26T05:20:10.059Z,58.18
2019-06-26T05:22:59.124Z,58.01
2019-06-26T05:25:49.185Z,57.87
2019-06-26T05:28:38.057Z,57.64
2019-06-26T05:31:27.754Z,57.85
2019-06-26T05:34:17.315Z,57.86
2019-06-26T05:37:06.812Z,56.26
2019-06-26T05:39:56.152Z,56.92
2019-06-26T05:42:45.653Z,56.86
2019-06-26T05:45:35.560Z,57.17
2019-06-26T05:48:25.324Z,56.91
2019-06-26T05:51:14.696Z,57.03
2019-06-26T05:54:03.699Z,57.24
2019-06-26T05:56:53.354Z,56.86
2019-06-26T05:59:43.111Z,56.73
2019-06-26T06:02:32.913Z,56.68
2019-06-26T06:05:22.456Z,56.20
2019-06-26T06:08:11.982Z,56.63
2019-06-26T06:11:01.157Z,56.77
2019-06-26T06:13:50.668Z,56.40
2019-06-26T06:16:47.234Z,56.48
2019-06-26T06:19:30.817Z,56.23
2019-06-26T06:22:20.417Z,56.39
2019-06-26T06:25:10.138Z,56.88
2019-06-26T06:27:59.624Z,57.11
2019-06-26T06:30:49.060Z,56.47
2019-06-26T06:33:38.449Z,57.86
2019-06-26T06:36:27.284Z,57.73
2019-06-26T06:39:16.529Z,57.69
2019-06-26T06:42:06.325Z,56.75
2019-06-26T06:44:55.956Z,57.22
2019-06-26T06:47:45.713Z,57.92
2019-06-26T06:50:35.109Z,56.83
2019-06-26T06:53:24.468Z,57.25
2019-06-26T06:56:13.867Z,57.00
2019-06-26T06:59:03.313Z,56.76
2019-06-26T07:01:53.161Z,56.66
2019-06-26T07:04:42.740Z,56.66
2019-06-26T07:07:31.808Z,56.47
2019-06-26T07:10:21.671Z,56.04
2019-06-26T07:13:11.454Z,56.15
2019-06-26T07:16:00.716Z,55.94
2019-06-26T07:18:50.267Z,55.93
2019-06-26T07:21:39.563Z,56.89
2019-06-26T07:24:29.330Z,56.38
2019-06-26T07:27:18.553Z,56.15
2019-06-26T07:30:08.211Z,55.98
2019-06-26T07:32:57.890Z,55.57
2019-06-26T07:35:46.867Z,55.42
2019-06-26T07:38:37.216Z,55.38
2019-06-26T07:41:26.319Z,55.50
2019-06-26T07:44:15.661Z,55.30
2019-06-26T07:47:12.649Z,55.30
2019-06-26T07:49:56.218Z,55.64
2019-06-26T07:52:45.213Z,56.11
2019-06-26T07:55:34.905Z,56.07
2019-06-26T07:58:24.350Z,56.17
2019-06-26T08:01:14.151Z,56.25
2019-06-26T08:04:03.630Z,56.98
2019-06-26T08:06:52.788Z,57.74
2019-06-26T08:09:42.436Z,57.90
2019-06-26T08:12:31.184Z,57.87
2019-06-26T08:15:20.977Z,57.62
2019-06-26T08:18:10.185Z,57.75
2019-06-26T08:21:11.518Z,58.40
2019-06-26T08:23:49.525Z,58.15
2019-06-26T08:26:38.637Z,58.53
2019-06-26T08:29:27.903Z,58.18
2019-06-26T08:32:17.029Z,58.57
2019-06-26T08:35:06.204Z,58.67
2019-06-26T08:38:09.375Z,58.05
2019-06-26T08:40:46.194Z,58.73
2019-06-26T08:43:35.745Z,58.71
2019-06-26T08:46:24.788Z,59.20
2019-06-26T08:49:24.993Z,59.86
2019-06-26T08:52:05.283Z,58.74
2019-06-26T08:54:54.685Z,58.76
2019-06-26T08:57:44.621Z,59.64
2019-06-26T09:00:33.809Z,59.38
2019-06-26T09:03:22.956Z,59.31
2019-06-26T09:06:12.157Z,58.99
2019-06-26T09:09:01.451Z,59.38
2019-06-26T09:11:50.270Z,60.58
2019-06-26T09:14:39.543Z,59.92
2019-06-26T09:17:28.582Z,60.69
2019-06-26T09:20:28.500Z,60.47
2019-06-26T09:23:18.758Z,60.66
2019-06-26T09:26:07.962Z,60.09
2019-06-26T09:28:57.056Z,60.33
2019-06-26T09:31:46.241Z,59.87
2019-06-26T09:34:35.682Z,59.07
2019-06-26T09:37:24.612Z,60.04
2019-06-26T09:40:14.454Z,59.70
2019-06-26T09:43:04.249Z,60.14
2019-06-26T09:45:54.086Z,59.95
2019-06-26T09:48:52.705Z,60.08
2019-06-26T09:51:34.126Z,60.91
2019-06-26T09:54:23.133Z,60.05
2019-06-26T09:57:12.661Z,60.90
2019-06-26T10:00:02.057Z,61.18
2019-06-26T10:02:51.588Z,60.51
2019-06-26T10:05:42.194Z,60.32
2019-06-26T10:08:31.282Z,60.17
2019-06-26T10:11:20.560Z,59.89
2019-06-26T10:14:09.828Z,59.37
2019-06-26T10:16:58.904Z,59.70
2019-06-26T10:19:48.613Z,59.67
2019-06-26T10:22:38.583Z,59.49
2019-06-26T10:25:27.953Z,59.42
2019-06-26T10:28:17.374Z,59.19
2019-06-26T10:31:06.668Z,60.09
2019-06-26T10:33:56.265Z,58.77
2019-06-26T10:36:45.603Z,58.22
2019-06-26T10:39:35.662Z,58.10
2019-06-26T10:42:25.425Z,58.15
2019-06-26T10:45:14.558Z,57.97
2019-06-26T10:48:04.381Z,57.89
2019-06-26T10:50:58.536Z,58.33
2019-06-26T10:53:44.495Z,58.07
2019-06-26T10:56:33.731Z,57.53
2019-06-26T10:59:23.404Z,57.04
2019-06-26T11:02:16.726Z,57.44
2019-06-26T11:05:04.650Z,56.49
2019-06-26T11:07:53.977Z,56.14
2019-06-26T11:10:43.326Z,56.20
2019-06-26T11:13:33.550Z,57.01
2019-06-26T11:16:22.933Z,55.86
2019-06-26T11:19:12.366Z,55.98
2019-06-26T11:22:02.517Z,55.51
2019-06-26T11:24:52.418Z,54.73
2019-06-26T11:27:41.998Z,54.04
2019-06-26T11:30:30.787Z,54.28
2019-06-26T11:33:20.392Z,53.75
2019-06-26T11:36:09.469Z,53.51
2019-06-26T11:38:59.232Z,53.72
2019-06-26T11:41:48.623Z,53.57
2019-06-26T11:44:37.597Z,53.26
2019-06-26T11:47:26.801Z,53.34
2019-06-26T11:50:16.022Z,53.99
2019-06-26T11:53:05.699Z,54.48
2019-06-26T11:55:55.498Z,55.10
2019-06-26T11:58:45.339Z,55.23
2019-06-26T12:01:34.663Z,55.22
2019-06-26T12:04:24.041Z,55.56
2019-06-26T12:07:13.224Z,55.32
2019-06-26T12:10:03.128Z,54.37
2019-06-26T12:12:52.936Z,53.79
2019-06-26T12:15:42.295Z,53.88
2019-06-26T12:18:32.308Z,54.01
2019-06-26T12:21:21.119Z,54.33
2019-06-26T12:24:10.481Z,54.69
2019-06-26T12:27:00.417Z,54.58
2019-06-26T12:29:49.996Z,54.57
2019-06-26T12:32:42.542Z,54.14
2019-06-26T12:35:30.576Z,53.93
2019-06-26T12:38:25.116Z,53.90
2019-06-26T12:41:14.115Z,53.41
2019-06-26T12:44:03.180Z,53.57
2019-06-26T12:46:51.836Z,53.19
2019-06-26T12:49:41.405Z,53.39
2019-06-26T12:52:30.577Z,53.51
2019-06-26T12:55:22.712Z,53.52
2019-06-26T12:58:14.015Z,53.49
2019-06-26T13:01:02.051Z,53.37
2019-06-26T13:03:51.742Z,53.99
2019-06-26T13:06:41.510Z,54.37
2019-06-26T13:09:30.310Z,54.53
2019-06-26T13:12:19.372Z,54.64
2019-06-26T13:15:08.694Z,53.81
2019-06-26T13:18:01.350Z,53.26
2019-06-26T13:20:53.161Z,53.17
2019-06-26T13:23:40.195Z,53.15
2019-06-26T13:26:29.882Z,53.13
2019-06-26T13:29:19.245Z,53.53
2019-06-26T13:32:08.231Z,53.15
2019-06-26T13:34:57.266Z,53.27
2019-06-26T13:37:46.610Z,53.12
2019-06-26T13:40:35.966Z,53.48
2019-06-26T13:43:24.956Z,53.50
2019-06-26T13:46:16.236Z,53.20
2019-06-26T13:49:05.213Z,52.86
2019-06-26T13:51:54.650Z,52.84
2019-06-26T13:54:44.216Z,52.84
2019-06-26T13:57:33.621Z,53.33
2019-06-26T14:00:22.497Z,53.16
2019-06-26T14:03:11.712Z,53.08
2019-06-26T14:06:00.871Z,52.77
2019-06-26T14:08:50.433Z,53.71
2019-06-26T14:11:40.296Z,53.14
2019-06-26T14:14:52.552Z,53.04
2019-06-26T14:17:21.125Z,53.21
2019-06-26T14:20:10.971Z,52.78
2019-06-26T14:23:00.496Z,53.29
2019-06-26T14:25:49.806Z,53.83
2019-06-26T14:28:39.315Z,53.84
2019-06-26T14:31:29.129Z,53.32
2019-06-26T14:34:18.190Z,52.84
2019-06-26T14:37:07.820Z,52.98
2019-06-26T14:39:57.578Z,53.12
2019-06-26T14:42:46.897Z,53.07
2019-06-26T14:45:39.328Z,53.03
2019-06-26T14:48:28.441Z,53.32
2019-06-26T14:51:18.188Z,53.06
2019-06-26T14:54:06.976Z,52.74
2019-06-26T14:56:56.604Z,53.15
2019-06-26T14:59:45.392Z,52.99
2019-06-26T15:02:34.241Z,52.89
2019-06-26T15:05:23.973Z,52.59
2019-06-26T15:08:13.087Z,52.83
2019-06-26T15:11:02.757Z,52.46
2019-06-26T15:13:51.973Z,52.34
2019-06-26T15:16:40.935Z,52.03
2019-06-26T15:19:30.228Z,51.95
2019-06-26T15:22:19.517Z,52.35
2019-06-26T15:25:09.216Z,51.87
2019-06-26T15:27:58.957Z,52.25
2019-06-26T15:30:48.802Z,52.47
2019-06-26T15:33:38.643Z,52.26
2019-06-26T15:36:27.998Z,52.38
2019-06-26T15:39:17.429Z,52.78
2019-06-26T15:42:06.939Z,52.53
2019-06-26T15:44:58.244Z,52.17
2019-06-26T15:47:48.140Z,52.81
2019-06-26T15:50:37.911Z,52.84
2019-06-26T15:53:26.934Z,52.41
2019-06-26T15:56:16.514Z,51.87
2019-06-26T15:59:05.503Z,52.04
2019-06-26T16:01:54.612Z,52.51
2019-06-26T16:04:44.331Z,52.26
2019-06-26T16:07:33.973Z,52.35
2019-06-26T16:10:23.577Z,52.21
2019-06-26T16:13:13.120Z,52.74
2019-06-26T16:16:02.926Z,52.31
2019-06-26T16:18:57.095Z,52.33
2019-06-26T16:21:46.702Z,51.87
2019-06-26T16:24:36.161Z,51.75
2019-06-26T16:27:24.974Z,51.53
2019-06-26T16:30:14.051Z,52.25
2019-06-26T16:33:03.123Z,51.41
2019-06-26T16:35:51.891Z,51.26
2019-06-26T16:38:41.881Z,51.52
2019-06-26T16:41:31.002Z,51.73
2019-06-26T16:44:20.052Z,51.93
2019-06-26T16:47:09.247Z,52.33
2019-06-26T16:49:57.972Z,52.15
2019-06-26T16:52:49.907Z,51.68
2019-06-26T16:55:39.213Z,51.54
2019-06-26T16:58:28.570Z,51.38
2019-06-26T17:01:17.575Z,52.22
2019-06-26T17:04:06.363Z,51.62
2019-06-26T17:06:55.438Z,51.50
2019-06-26T17:09:44.572Z,51.76
2019-06-26T17:12:34.296Z,51.25
2019-06-26T17:15:23.840Z,51.11
2019-06-26T17:18:13.233Z,51.47
2019-06-26T17:21:02.584Z,52.14
2019-06-26T17:23:51.327Z,52.05
2019-06-26T17:26:40.435Z,52.40
2019-06-26T17:29:30.119Z,52.18
2019-06-26T17:32:19.633Z,52.96
2019-06-26T17:35:09.875Z,52.27
2019-06-26T17:37:59.133Z,52.06
2019-06-26T17:40:48.142Z,52.34
2019-06-26T17:43:38.046Z,52.82
2019-06-26T17:46:27.216Z,53.16
2019-06-26T17:49:16.945Z,52.81
2019-06-26T17:52:06.269Z,52.62
2019-06-26T17:54:55.591Z,52.29
2019-06-26T17:57:47.428Z,52.40
2019-06-26T18:00:36.533Z,51.83
2019-06-26T18:03:25.267Z,52.02
2019-06-26T18:06:14.893Z,51.67
2019-06-26T18:09:03.734Z,51.69
2019-06-26T18:11:53.398Z,51.79
2019-06-26T18:14:43.404Z,52.64
2019-06-26T18:17:33.371Z,52.48
2019-06-26T18:20:22.530Z,52.45
2019-06-26T18:23:11.959Z,52.13
2019-06-26T18:26:12.276Z,51.87
2019-06-26T18:28:51.814Z,51.84
2019-06-26T18:31:41.570Z,51.42
2019-06-26T18:34:30.357Z,51.94
2019-06-26T18:37:19.764Z,51.53
2019-06-26T18:40:09.385Z,52.05
2019-06-26T18:42:58.688Z,51.98
2019-06-26T18:45:48.397Z,51.65
2019-06-26T18:48:38.147Z,51.14
2019-06-26T18:51:27.897Z,51.52
2019-06-26T18:54:17.293Z,51.43
2019-06-26T18:57:06.169Z,51.42
2019-06-26T18:59:54.987Z,51.59
2019-06-26T19:02:44.029Z,51.55
2019-06-26T19:05:33.811Z,51.57
2019-06-26T19:08:23.253Z,51.75
2019-06-26T19:11:13.037Z,51.60
2019-06-26T19:14:02.385Z,51.82
2019-06-26T19:16:52.049Z,51.58
2019-06-26T19:19:41.722Z,51.21
2019-06-26T19:22:31.091Z,51.16
2019-06-26T19:25:19.979Z,51.06
2019-06-26T19:28:11.505Z,51.60
2019-06-26T19:31:00.875Z,51.84
2019-06-26T19:33:49.921Z,51.19
2019-06-26T19:36:49.679Z,50.96
2019-06-26T19:39:29.458Z,50.66
2019-06-26T19:42:19.076Z,50.52
2019-06-26T19:45:09.068Z,50.60
2019-06-26T19:47:59.647Z,50.57
2019-06-26T19:50:49.658Z,50.58
2019-06-26T19:53:39.712Z,51.00
2019-06-26T19:56:29.551Z,51.01
2019-06-26T19:59:19.047Z,51.20
2019-06-26T20:02:08.106Z,52.19
2019-06-26T20:04:57.148Z,53.89
2019-06-26T20:07:47.183Z,52.16
2019-06-26T20:10:36.890Z,51.75
2019-06-26T20:13:26.522Z,51.56
2019-06-26T20:16:16.204Z,51.26
2019-06-26T20:19:04.924Z,51.26
2019-06-26T20:21:54.932Z,51.07
2019-06-26T20:24:44.868Z,50.55
2019-06-26T20:27:34.767Z,50.61
2019-06-26T20:30:29.400Z,51.84
2019-06-26T20:33:18.651Z,54.53
2019-06-26T20:36:08.164Z,54.82
2019-06-26T20:38:57.533Z,53.86
2019-06-26T20:41:46.824Z,52.58
2019-06-26T20:44:35.614Z,51.71
2019-06-26T20:47:24.412Z,51.75
2019-06-26T20:50:14.875Z,52.28
2019-06-26T20:53:04.679Z,51.97
2019-06-26T20:55:53.298Z,52.19
2019-06-26T20:58:42.712Z,52.30
2019-06-26T21:01:31.503Z,52.05
2019-06-26T21:04:20.211Z,52.42
2019-06-26T21:07:10.081Z,54.35
2019-06-26T21:09:59.707Z,55.57
2019-06-26T21:12:49.077Z,56.01
2019-06-26T21:15:37.948Z,56.94
2019-06-26T21:18:27.879Z,56.75
2019-06-26T21:21:17.388Z,55.65
2019-06-26T21:24:06.729Z,54.83
2019-06-26T21:26:56.075Z,54.27
2019-06-26T21:29:45.802Z,53.46
2019-06-26T21:32:35.448Z,53.08
2019-06-26T21:35:24.518Z,52.33
2019-06-26T21:38:13.878Z,51.88
2019-06-26T21:41:03.355Z,51.75
2019-06-26T21:43:52.645Z,51.08
2019-06-26T21:46:41.654Z,51.48
2019-06-26T21:49:30.628Z,51.27
2019-06-26T21:52:19.924Z,51.14
2019-06-26T21:55:09.280Z,51.08
2019-06-26T21:57:58.671Z,51.40
2019-06-26T22:00:48.352Z,51.67
2019-06-26T22:03:37.115Z,52.04
2019-06-26T22:06:26.735Z,52.08
2019-06-26T22:09:16.416Z,52.15
2019-06-26T22:12:06.090Z,52.11
2019-06-26T22:14:55.967Z,51.78
2019-06-26T22:17:45.812Z,51.77
2019-06-26T22:20:35.989Z,51.57
2019-06-26T22:23:25.394Z,51.63
2019-06-26T22:26:14.557Z,52.26
2019-06-26T22:29:03.999Z,52.66
2019-06-26T22:31:53.880Z,51.89
2019-06-26T22:34:43.606Z,51.84
2019-06-26T22:37:33.237Z,51.94
2019-06-26T22:40:22.946Z,52.13
2019-06-26T22:43:11.655Z,52.22
2019-06-26T22:46:00.865Z,52.26
2019-06-26T22:48:50.672Z,51.93
2019-06-26T22:51:40.654Z,52.06
2019-06-26T22:54:30.193Z,52.18
2019-06-26T22:57:19.740Z,52.23
2019-06-26T23:00:09.438Z,51.95
2019-06-26T23:02:58.572Z,52.53
2019-06-26T23:05:48.026Z,52.17
2019-06-26T23:08:37.920Z,52.32
2019-06-26T23:11:27.311Z,52.62
2019-06-26T23:14:16.989Z,52.21
2019-06-26T23:17:06.481Z,51.96
2019-06-26T23:19:55.709Z,52.10
2019-06-26T23:22:44.497Z,51.86
2019-06-26T23:25:33.980Z,52.41
2019-06-26T23:28:23.733Z,52.21
2019-06-26T23:31:13.790Z,52.04
2019-06-26T23:34:03.397Z,52.03
2019-06-26T23:36:52.914Z,52.07
2019-06-26T23:39:42.810Z,52.10
2019-06-26T23:42:32.173Z,51.37
2019-06-26T23:45:20.962Z,51.46
2019-06-26T23:48:10.631Z,51.28
2019-06-26T23:51:00.099Z,51.21
2019-06-26T23:53:49.443Z,51.49
2019-06-26T23:56:40.686Z,51.26
2019-06-26T23:59:29.511Z,51.38
